createdAt,value
2022-11-20T00:03:57.303Z,9.77
2022-11-20T00:08:08.776Z,9.33
2022-11-20T00:12:20.222Z,10.43
2022-11-20T00:16:33.850Z,11.00
2022-11-20T00:20:45.293Z,10.57
2022-11-20T00:24:58.303Z,7.83
2022-11-20T00:29:11.323Z,6.80
2022-11-20T00:33:22.813Z,6.87
2022-11-20T00:37:34.287Z,7.27
2022-11-20T00:41:45.750Z,8.63
2022-11-20T00:46:02.252Z,8.90
2022-11-20T00:50:13.725Z,7.57
2022-11-20T00:54:25.274Z,8.30
2022-11-20T00:58:39.345Z,8.13
2022-11-20T01:02:50.760Z,8.70
2022-11-20T01:07:02.264Z,8.30
2022-11-20T01:11:22.751Z,7.33
2022-11-20T01:15:34.948Z,8.07
2022-11-20T01:19:51.653Z,7.17
2022-11-20T01:24:04.728Z,6.80
2022-11-20T01:28:16.187Z,7.37
2022-11-20T01:32:27.697Z,7.47
2022-11-20T01:36:40.346Z,6.77
2022-11-20T01:40:56.244Z,6.87
2022-11-20T01:45:45.807Z,6.80
2022-11-20T01:50:03.821Z,6.83
2022-11-20T01:54:24.132Z,7.10
2022-11-20T01:58:39.980Z,7.07
2022-11-20T02:02:58.550Z,7.40
2022-11-20T02:07:10.285Z,7.00
2022-11-20T02:11:22.700Z,6.77
2022-11-20T02:15:34.740Z,7.63
2022-11-20T02:19:46.258Z,8.10
2022-11-20T02:24:08.547Z,7.07
2022-11-20T02:28:20.387Z,7.33
2022-11-20T02:32:33.715Z,7.50
2022-11-20T02:36:47.613Z,7.00
2022-11-20T02:40:59.082Z,6.80
2022-11-20T02:45:11.180Z,6.00
2022-11-20T02:49:22.716Z,6.80
2022-11-20T02:53:34.345Z,6.53
2022-11-20T02:57:45.830Z,6.63
2022-11-20T03:01:57.378Z,6.30
2022-11-20T03:06:09.147Z,6.87
2022-11-20T03:10:20.593Z,6.73
2022-11-20T03:14:32.516Z,7.17
2022-11-20T03:18:44.706Z,6.67
2022-11-20T03:22:56.268Z,7.20
2022-11-20T03:27:07.995Z,7.43
2022-11-20T03:31:22.653Z,6.87
2022-11-20T03:35:34.327Z,7.20
2022-11-20T03:39:45.895Z,6.83
2022-11-20T03:44:00.254Z,6.70
2022-11-20T03:48:11.834Z,6.63
2022-11-20T03:52:23.448Z,7.20
2022-11-20T03:56:37.313Z,7.00
2022-11-20T04:00:48.941Z,6.87
2022-11-20T04:05:00.549Z,7.43
2022-11-20T04:09:12.264Z,7.47
2022-11-20T04:13:23.879Z,6.83
2022-11-20T04:17:35.604Z,7.80
2022-11-20T04:21:47.296Z,6.83
2022-11-20T04:26:06.906Z,6.47
2022-11-20T04:30:18.595Z,6.73
2022-11-20T04:34:30.189Z,6.90
2022-11-20T04:38:41.927Z,7.17
2022-11-20T04:42:53.518Z,8.03
2022-11-20T04:47:05.315Z,7.47
2022-11-20T04:51:16.939Z,6.57
2022-11-20T04:55:28.534Z,7.47
2022-11-20T04:59:40.112Z,6.87
2022-11-20T05:03:52.588Z,7.10
2022-11-20T05:08:04.549Z,7.20
2022-11-20T05:12:16.184Z,6.93
2022-11-20T05:16:27.777Z,7.63
2022-11-20T05:20:39.463Z,7.60
2022-11-20T05:24:51.091Z,7.70
2022-11-20T05:29:02.843Z,8.70
2022-11-20T05:33:14.752Z,7.13
2022-11-20T05:37:26.466Z,7.47
2022-11-20T05:41:38.058Z,11.13
2022-11-20T05:45:55.866Z,8.20
2022-11-20T05:50:07.732Z,9.90
2022-11-20T05:54:19.317Z,9.67
2022-11-20T05:58:32.768Z,7.90
2022-11-20T06:02:44.437Z,7.87
2022-11-20T06:06:56.018Z,8.60
2022-11-20T06:11:13.491Z,9.00
2022-11-20T06:15:25.413Z,8.63
2022-11-20T06:19:37.033Z,8.20
2022-11-20T06:23:49.757Z,7.97
2022-11-20T06:28:01.352Z,9.60
2022-11-20T06:32:12.967Z,9.17
2022-11-20T06:36:24.516Z,8.10
2022-11-20T06:40:36.054Z,9.80
2022-11-20T06:44:47.688Z,10.00
2022-11-20T06:48:59.389Z,11.77
2022-11-20T06:53:10.953Z,11.60
2022-11-20T06:57:22.584Z,11.67
2022-11-20T07:01:34.387Z,12.57
2022-11-20T07:05:46.929Z,11.37
2022-11-20T07:09:58.578Z,12.13
2022-11-20T07:14:10.150Z,11.63
2022-11-20T07:18:21.986Z,11.33
2022-11-20T07:22:33.541Z,13.67
2022-11-20T07:26:48.102Z,13.97
2022-11-20T07:31:00.027Z,12.23
2022-11-20T07:35:11.684Z,12.57
2022-11-20T07:39:23.590Z,11.40
2022-11-20T07:43:39.896Z,10.50
2022-11-20T07:47:53.068Z,10.60
2022-11-20T07:52:05.460Z,10.80
2022-11-20T07:56:17.176Z,10.47
2022-11-20T08:00:28.925Z,10.87
2022-11-20T08:04:40.589Z,10.63
2022-11-20T08:08:52.419Z,10.60
2022-11-20T08:13:22.835Z,10.70
2022-11-20T08:17:34.561Z,12.40
2022-11-20T08:21:46.697Z,11.97
2022-11-20T08:25:58.478Z,11.60
2022-11-20T08:30:10.827Z,11.93
2022-11-20T08:34:22.426Z,11.13
2022-11-20T08:38:34.000Z,12.57
2022-11-20T08:42:50.491Z,11.27
2022-11-20T08:47:02.161Z,12.13
2022-11-20T08:51:13.859Z,11.30
2022-11-20T08:55:25.476Z,10.93
2022-11-20T09:00:04.396Z,26.17
2022-11-20T09:04:08.726Z,10.67
2022-11-20T09:08:20.324Z,10.27
2022-11-20T09:12:31.855Z,10.50
2022-11-20T09:16:43.429Z,10.03
2022-11-20T09:21:02.582Z,15.80
2022-11-20T09:25:14.229Z,10.87
2022-11-20T09:29:25.886Z,11.30
2022-11-20T09:33:37.622Z,11.87
2022-11-20T09:37:49.330Z,11.80
2022-11-20T09:42:05.419Z,11.73
2022-11-20T09:46:30.896Z,11.60
2022-11-20T09:51:10.463Z,12.20
2022-11-20T09:55:22.656Z,12.03
2022-11-20T09:59:47.027Z,12.43
2022-11-20T10:04:14.804Z,11.73
2022-11-20T10:08:32.894Z,12.13
2022-11-20T10:13:11.945Z,11.73
2022-11-20T10:17:46.178Z,12.00
2022-11-20T10:22:10.024Z,12.43
2022-11-20T10:26:53.016Z,11.27
2022-11-20T10:31:11.729Z,12.20
2022-11-20T10:35:29.656Z,11.57
2022-11-20T10:40:22.735Z,13.23
2022-11-20T10:44:56.696Z,17.87
2022-11-20T10:49:26.779Z,16.33
2022-11-20T10:53:54.936Z,17.80
2022-11-20T10:58:18.077Z,14.13
2022-11-20T11:02:35.975Z,14.03
2022-11-20T11:06:49.654Z,13.47
2022-11-20T11:11:10.362Z,17.73
2022-11-20T11:15:31.513Z,13.27
2022-11-20T11:19:43.148Z,12.97
2022-11-20T11:24:26.847Z,13.43
2022-11-20T11:28:35.418Z,12.60
2022-11-20T11:32:47.433Z,12.47
2022-11-20T11:37:00.377Z,13.63
2022-11-20T11:41:22.038Z,13.33
2022-11-20T11:45:33.679Z,12.70
2022-11-20T11:49:45.402Z,13.67
2022-11-20T11:54:00.179Z,13.30
2022-11-20T11:58:42.875Z,13.57
2022-11-20T12:02:58.540Z,12.33
2022-11-20T12:07:47.633Z,11.87
2022-11-20T12:12:11.525Z,15.33
2022-11-20T12:16:23.912Z,13.50
2022-11-20T12:20:44.899Z,13.73
2022-11-20T12:25:04.511Z,16.27
2022-11-20T12:29:27.598Z,13.77
2022-11-20T12:34:10.153Z,14.90
2022-11-20T12:38:33.869Z,16.80
2022-11-20T12:43:30.031Z,16.27
2022-11-20T12:47:56.970Z,15.40
2022-11-20T12:52:31.188Z,14.80
2022-11-20T12:57:12.769Z,14.80
2022-11-20T13:01:53.777Z,13.67
2022-11-20T13:06:18.781Z,14.70
2022-11-20T13:10:44.473Z,15.33
2022-11-20T13:15:04.514Z,15.33
2022-11-20T13:19:18.248Z,15.83
2022-11-20T13:23:29.974Z,15.50
2022-11-20T13:27:49.023Z,15.73
2022-11-20T13:32:08.095Z,16.00
2022-11-20T13:36:29.272Z,15.47
2022-11-20T13:40:54.872Z,16.07
2022-11-20T13:45:12.601Z,16.97
2022-11-20T13:49:44.802Z,17.33
2022-11-20T13:53:59.673Z,17.40
2022-11-20T13:58:41.508Z,18.20
2022-11-20T14:03:17.651Z,18.53
2022-11-20T14:07:37.633Z,20.07
2022-11-20T14:11:49.405Z,17.87
2022-11-20T14:16:01.088Z,19.80
2022-11-20T14:20:16.319Z,18.80
2022-11-20T14:24:28.172Z,18.90
2022-11-20T14:28:41.120Z,19.37
2022-11-20T14:32:56.598Z,19.77
2022-11-20T14:37:16.789Z,20.43
2022-11-20T14:41:28.734Z,20.70
2022-11-20T14:45:40.466Z,19.70
2022-11-20T14:49:54.652Z,20.77
2022-11-20T14:54:17.284Z,20.87
2022-11-20T14:58:32.772Z,20.20
2022-11-20T15:02:50.044Z,21.90
2022-11-20T15:07:01.827Z,22.07
2022-11-20T15:11:24.607Z,19.97
2022-11-20T15:15:50.392Z,21.33
2022-11-20T15:20:03.086Z,20.90
2022-11-20T15:24:15.102Z,21.30
2022-11-20T15:28:56.222Z,20.97
2022-11-20T15:33:09.511Z,21.27
2022-11-20T15:37:22.249Z,20.93
2022-11-20T15:41:37.107Z,23.52
2022-11-20T15:46:01.458Z,24.10
2022-11-20T15:50:18.273Z,24.93
2022-11-20T15:54:29.899Z,23.00
2022-11-20T15:58:42.336Z,23.93
2022-11-20T16:02:53.936Z,23.73
2022-11-20T16:07:06.079Z,26.43
2022-11-20T16:11:18.739Z,22.97
2022-11-20T16:15:49.085Z,23.40
2022-11-20T16:20:00.675Z,24.13
2022-11-20T16:24:14.029Z,24.77
2022-11-20T16:28:25.827Z,23.60
2022-11-20T16:32:39.614Z,24.23
2022-11-20T16:36:51.409Z,23.43
2022-11-20T16:41:03.648Z,23.83
2022-11-20T16:45:19.982Z,26.80
2022-11-20T16:49:34.942Z,26.43
2022-11-20T16:53:46.541Z,25.33
2022-11-20T16:57:58.033Z,26.00
2022-11-20T17:02:10.526Z,25.67
2022-11-20T17:06:25.368Z,29.50
2022-11-20T17:10:36.898Z,24.77
2022-11-20T17:14:48.480Z,24.90
2022-11-20T17:19:03.403Z,25.58
2022-11-20T17:23:15.207Z,24.07
2022-11-20T17:27:26.956Z,22.77
2022-11-20T17:31:39.422Z,25.73
2022-11-20T17:35:50.962Z,24.63
2022-11-20T17:40:02.479Z,24.00
2022-11-20T17:44:14.179Z,23.63
2022-11-20T17:48:26.138Z,24.60
2022-11-20T17:52:37.573Z,24.00
2022-11-20T17:57:07.816Z,23.20
2022-11-20T18:01:19.789Z,24.90
2022-11-20T18:05:31.359Z,23.80
2022-11-20T18:09:42.789Z,25.30
2022-11-20T18:14:15.896Z,25.80
2022-11-20T18:18:27.350Z,22.53
2022-11-20T18:22:38.871Z,20.77
2022-11-20T18:26:50.489Z,21.00
2022-11-20T18:31:06.699Z,22.00
2022-11-20T18:35:18.175Z,20.10
2022-11-20T18:39:29.831Z,19.17
2022-11-20T18:43:59.930Z,19.50
2022-11-20T18:48:11.484Z,18.90
2022-11-20T18:52:33.851Z,18.17
2022-11-20T18:56:45.479Z,19.90
2022-11-20T19:00:57.047Z,17.27
2022-11-20T19:05:09.741Z,18.10
2022-11-20T19:09:22.900Z,18.03
2022-11-20T19:13:35.800Z,17.03
2022-11-20T19:17:47.393Z,19.33
2022-11-20T19:21:58.923Z,19.10
2022-11-20T19:26:10.620Z,19.40
2022-11-20T19:30:22.143Z,18.73
2022-11-20T19:34:33.653Z,20.27
2022-11-20T19:38:52.336Z,19.20
2022-11-20T19:43:05.182Z,20.30
2022-11-20T19:47:16.892Z,21.97
2022-11-20T19:51:31.092Z,19.90
2022-11-20T19:55:45.525Z,24.17
2022-11-20T19:59:57.105Z,24.73
2022-11-20T20:04:09.000Z,22.87
2022-11-20T20:08:20.523Z,19.27
2022-11-20T20:12:32.136Z,25.47
2022-11-20T20:16:48.301Z,24.83
2022-11-20T20:21:05.294Z,21.47
2022-11-20T20:25:16.854Z,22.20
2022-11-20T20:29:28.563Z,23.30
2022-11-20T20:33:41.312Z,23.13
2022-11-20T20:37:52.900Z,23.07
2022-11-20T20:42:04.541Z,23.57
2022-11-20T20:46:16.168Z,23.43
2022-11-20T20:50:27.737Z,23.97
2022-11-20T20:54:41.905Z,23.33
2022-11-20T20:58:53.644Z,24.13
2022-11-20T21:03:10.451Z,23.77
2022-11-20T21:07:22.212Z,24.60
2022-11-20T21:11:34.874Z,23.90
2022-11-20T21:15:48.988Z,26.30
2022-11-20T21:20:00.455Z,25.40
2022-11-20T21:24:11.945Z,25.27
2022-11-20T21:28:23.413Z,25.90
2022-11-20T21:32:34.905Z,27.73
2022-11-20T21:36:46.828Z,25.27
2022-11-20T21:40:58.790Z,28.03
2022-11-20T21:45:10.452Z,27.13
2022-11-20T21:49:22.407Z,25.17
2022-11-20T21:53:34.658Z,26.73
2022-11-20T21:57:46.108Z,25.60
2022-11-20T22:01:57.640Z,26.80
2022-11-20T22:06:10.200Z,26.73
2022-11-20T22:10:21.675Z,26.60
2022-11-20T22:14:33.145Z,26.47
2022-11-20T22:18:47.284Z,25.93
2022-11-20T22:22:58.782Z,27.23
2022-11-20T22:27:10.430Z,27.07
2022-11-20T22:31:24.247Z,25.63
2022-11-20T22:35:35.673Z,26.60
2022-11-20T22:39:47.104Z,26.20
2022-11-20T22:44:04.082Z,26.63
2022-11-20T22:48:15.587Z,25.17
2022-11-20T22:52:27.100Z,26.13
2022-11-20T22:56:39.128Z,24.50
2022-11-20T23:00:51.120Z,23.37
2022-11-20T23:05:02.641Z,24.67
2022-11-20T23:09:14.298Z,23.80
2022-11-20T23:13:26.072Z,26.07
2022-11-20T23:17:37.556Z,22.67
2022-11-20T23:21:49.132Z,21.83
2022-11-20T23:26:09.625Z,22.20
2022-11-20T23:30:21.483Z,23.80
2022-11-20T23:34:32.938Z,21.97
2022-11-20T23:38:44.471Z,22.37
2022-11-20T23:43:14.296Z,22.50
2022-11-20T23:47:25.817Z,21.33
2022-11-20T23:51:37.238Z,22.07
2022-11-20T23:55:54.209Z,22.13
